Date,TemperatureHighF,TemperatureAvgF,TemperatureLowF,DewpointHighF,DewpointAvgF,DewpointLowF,HumidityHigh,HumidityAvg,HumidityLow,PressureMaxIn,PressureMinIn,WindSpeedMaxMPH,WindSpeedAvgMPH,GustSpeedMaxMPH,PrecipitationSumIn
2013-2-1,26.7,18.0,11.7,23.0,6.8,-1.0,92,63,43,30.36,29.76,18,5,32,0.00
2013-2-2,26.3,18.7,11.4,23.0,11.2,1.0,92,73,46,30.36,30.02,15,4,22,0.00
2013-2-3,30.9,27.3,22.7,25.0,19.6,10.0,91,74,57,30.01,29.80,15,5,26,0.02
2013-2-4,33.2,25.8,18.8,29.0,15.0,8.0,85,64,57,30.07,29.90,17,4,23,0.01
2013-2-5,44.4,39.4,33.5,32.0,29.7,25.0,85,68,62,29.90,29.82,17,5,23,0.00
2013-2-6,44.2,37.4,30.8,32.0,25.5,23.0,78,63,45,30.29,29.89,12,2,16,0.00
2013-2-7,34.0,30.3,26.6,29.0,24.4,23.0,90,79,69,30.36,30.14,4,1,8,0.00
2013-2-8,41.5,32.6,29.2,37.0,28.5,21.0,96,85,64,30.13,29.78,19,3,33,0.12
2013-2-9,37.9,29.8,23.1,21.0,12.1,5.0,73,50,28,30.37,30.00,18,4,27,0.00
2013-2-10,40.3,33.7,28.9,25.0,13.5,6.0,63,44,35,30.41,30.18,13,2,21,0.00
2013-2-11,56.7,47.4,34.6,48.0,36.1,18.0,94,70,28,30.18,29.75,16,6,33,0.01
2013-2-12,55.8,45.0,34.9,23.0,16.5,10.0,57,35,17,29.93,29.80,27,5,39,0.00
2013-2-13,42.9,36.7,30.7,31.0,22.1,12.0,95,61,29,29.90,29.59,6,1,12,0.00
2013-2-14,43.5,36.0,28.1,29.0,23.7,20.0,87,63,46,30.00,29.77,11,3,22,0.07
2013-2-15,49.4,40.2,31.5,36.0,28.9,23.0,95,66,48,30.02,29.87,14,4,21,0.07
2013-2-16,32.8,27.9,21.2,28.0,20.7,12.0,87,74,62,29.95,29.83,9,2,15,0.04
2013-2-17,20.9,17.1,13.8,15.0,3.9,-99.9,82,61,46,30.23,29.86,18,-15,29,0.00
2013-2-18,41.7,28.9,16.2,20.0,10.4,2.0,73,48,30,30.38,30.16,7,3,15,0.02
2013-2-19,43.4,37.0,31.5,37.0,25.4,13.0,94,65,43,30.13,29.71,18,6,31,0.03
2013-2-20,33.4,26.8,20.2,15.0,10.9,8.0,76,52,37,30.14,29.84,18,5,26,0.00
2013-2-21,36.8,25.1,16.3,14.0,11.7,8.0,75,58,40,30.31,30.12,11,2,15,0.00
2013-2-22,31.1,27.1,23.3,25.0,20.5,13.0,90,77,57,30.36,30.14,6,1,8,0.04
2013-2-23,48.9,38.0,29.0,38.0,33.1,25.0,95,83,65,30.14,29.80,6,1,14,0.02
2013-2-24,45.3,38.5,26.2,37.0,25.7,16.0,91,63,34,30.09,29.78,17,4,21,0.00
2013-2-25,39.0,29.5,23.5,19.0,16.1,13.0,73,59,43,30.20,30.09,9,2,13,0.00
2013-2-26,39.3,33.1,29.3,38.0,27.2,17.0,96,80,58,30.19,29.62,17,2,20,0.60
2013-2-27,43.7,38.5,33.5,35.0,31.7,28.0,97,78,57,29.70,29.57,12,4,24,0.01
2013-2-28,37.7,33.8,31.4,31.0,23.3,20.0,79,66,55,29.75,29.61,14,5,22,0.00